Time;durP1;ratioP1;P1;durP2;ratioP2;P2;SDS_P1;SDS_P2;PMS_P1;PMS_P2;Temp;Humidity;BMP_temperature;BMP_pressure;BME280_temperature;BME280_humidity;BME280_pressure;Samples;Min_cycle;Max_cycle;Signal;HPM_P1;HPM_P2
2023/01/17 00:01:29;;;;;;;18.48;10.70;;;;;;;2.29;100.00;97842.66;1671775;85;25639;-39
2023/01/17 00:12:07;;;;;;;19.62;10.25;;;;;;;2.29;100.00;97827.98;1583756;90;26176;-38
2023/01/17 00:14:33;;;;;;;23.98;11.97;;;;;;;2.30;100.00;97828.77;1583663;90;25832;-41
2023/01/17 00:17:04;;;;;;;23.62;12.15;;;;;;;2.30;100.00;97829.57;1584007;90;27414;-40
2023/01/17 01:35:29;;;;;;;18.82;10.18;;;;;;;2.61;100.00;97715.17;1669479;86;25409;-39
2023/01/17 01:37:56;;;;;;;18.92;10.98;;;;;;;2.62;100.00;97712.72;1669356;86;27381;-40
2023/01/17 01:40:22;;;;;;;18.85;11.20;;;;;;;2.63;100.00;97706.29;1669294;86;25444;-39
2023/01/17 01:42:56;;;;;;;19.77;11.03;;;;;;;2.63;100.00;97702.29;1669399;86;25502;-40
2023/01/17 01:45:30;;;;;;;22.30;11.50;;;;;;;2.65;100.00;97700.08;1669293;86;25625;-40
2023/01/17 01:48:19;;;;;;;22.00;10.98;;;;;;;2.65;100.00;97706.75;1669472;86;25434;-40
2023/01/17 01:50:49;;;;;;;24.00;12.93;;;;;;;2.66;100.00;97704.88;1668328;86;27560;-42
2023/01/17 01:53:15;;;;;;;;;;;;;;;2.67;100.00;97691.75;1671868;86;25617;-41
2023/01/17 01:55:44;;;;;;;18.60;10.25;;;;;;;2.67;100.00;97691.75;1669485;85;25461;-41
2023/01/17 01:58:15;;;;;;;17.32;9.23;;;;;;;2.69;100.00;97688.20;1669519;86;26283;-41
2023/01/17 02:00:41;;;;;;;23.35;12.28;;;;;;;2.68;100.00;97673.31;1669145;86;25560;-40
2023/01/17 02:03:20;;;;;;;23.98;11.20;;;;;;;2.70;100.00;97681.22;1669471;86;27375;-41
2023/01/17 02:05:47;;;;;;;17.45;8.33;;;;;;;2.71;100.00;97664.67;1669569;86;25631;-40
2023/01/17 02:08:18;;;;;;;29.55;13.00;;;;;;;2.70;100.00;97671.88;1669568;85;25625;-40
2023/01/17 02:10:45;;;;;;;25.88;13.68;;;;;;;2.71;100.00;97664.11;1669488;86;25819;-40
2023/01/17 02:13:15;;;;;;;25.90;13.62;;;;;;;2.71;100.00;97652.09;1669578;86;25635;-39
2023/01/17 02:15:50;;;;;;;22.55;13.05;;;;;;;2.73;100.00;97654.45;1669609;86;27570;-39
2023/01/17 02:18:47;;;;;;;29.80;13.95;;;;;;;2.74;100.00;97661.33;1668921;86;25839;-40
2023/01/17 02:21:44;;;;;;;23.62;12.18;;;;;;;2.75;100.00;97667.69;1667087;86;25459;-40
2023/01/17 02:24:25;;;;;;;22.00;12.45;;;;;;;2.74;100.00;97656.80;1669590;86;25629;-39
2023/01/17 02:27:09;;;;;;;26.45;13.62;;;;;;;2.76;100.00;97651.14;1668944;86;25486;-40
2023/01/17 02:30:09;;;;;;;20.97;11.30;;;;;;;2.76;100.00;97654.58;1669579;86;27393;-40
2023/01/17 02:32:56;;;;;;;25.45;13.78;;;;;;;2.77;100.00;97658.03;1691669;84;25538;-39
2023/01/17 02:35:33;;;;;;;28.25;13.28;;;;;;;2.77;100.00;97662.03;1702768;84;25547;-39
2023/01/17 02:38:17;;;;;;;31.15;15.00;;;;;;;2.76;100.00;97653.81;1678499;84;25710;-40
2023/01/17 02:40:55;;;;;;;29.60;18.87;;;;;;;2.75;100.00;97650.34;1701878;84;25588;-39
2023/01/17 02:43:24;;;;;;;29.67;17.80;;;;;;;2.74;100.00;97650.12;1691064;84;27357;-39
2023/01/17 02:45:50;;;;;;;44.88;40.28;;;;;;;2.75;100.00;97643.66;1691937;84;25580;-40
2023/01/17 02:48:21;;;;;;;75.28;68.67;;;;;;;2.76;100.00;97645.80;1669653;84;25692;-39
2023/01/17 02:51:12;;;;;;;86.80;79.53;;;;;;;2.76;100.00;97646.58;1691938;84;25616;-39
2023/01/17 02:54:03;;;;;;;90.83;83.20;;;;;;;2.76;100.00;97651.91;1692000;84;25407;-40
2023/01/17 02:56:59;;;;;;;50.73;46.10;;;;;;;2.76;100.00;97641.23;1691896;84;29471;-40
2023/01/17 02:59:48;;;;;;;75.55;68.80;;;;;;;2.75;100.00;97632.98;1691832;84;25665;-40
2023/01/17 03:02:32;;;;;;;46.37;41.77;;;;;;;2.76;100.00;97633.79;1692130;84;25410;-41
2023/01/17 03:05:13;;;;;;;77.40;70.65;;;;;;;2.76;100.00;97633.23;1688900;84;26176;-40
2023/01/17 03:07:43;;;;;;;87.50;80.17;;;;;;;2.74;100.00;97631.44;1691904;84;25518;-40
2023/01/17 03:10:14;;;;;;;90.12;82.75;;;;;;;2.77;100.00;97632.66;1691905;84;27423;-40
2023/01/17 03:12:40;;;;;;;90.55;83.20;;;;;;;2.76;100.00;97633.23;1691829;84;25620;-40
2023/01/17 03:15:11;;;;;;;90.80;83.07;;;;;;;2.74;100.00;97628.77;1691940;84;25399;-40
2023/01/17 03:17:46;;;;;;;89.47;82.35;;;;;;;2.76;100.00;97638.56;1691824;84;25679;-40
2023/01/17 03:20:12;;;;;;;90.03;82.25;;;;;;;2.74;100.00;97623.96;1669443;84;25450;-40
2023/01/17 03:22:38;;;;;;;59.18;53.80;;;;;;;2.76;100.00;97634.56;1669842;84;27353;-40
2023/01/17 03:25:07;;;;;;;91.80;84.03;;;;;;;2.74;100.00;97624.77;1691824;84;25457;-39
2023/01/17 03:27:33;;;;;;;67.73;61.83;;;;;;;2.73;100.00;97628.52;1693294;84;25695;-40
2023/01/17 03:30:00;;;;;;;89.97;82.80;;;;;;;2.74;100.00;97631.44;1691774;84;25676;-40
2023/01/17 03:32:27;;;;;;;89.95;82.80;;;;;;;2.73;100.00;97633.09;1688474;84;25496;-40
2023/01/17 03:34:54;;;;;;;90.77;83.30;;;;;;;2.71;100.00;97629.41;1671624;85;28064;-40
2023/01/17 03:37:20;;;;;;;90.17;82.50;;;;;;;2.72;100.00;97622.95;1671581;85;25593;-41
2023/01/17 03:39:46;;;;;;;90.05;82.85;;;;;;;2.73;100.00;97623.19;1646186;85;25668;-39
2023/01/17 03:42:13;;;;;;;88.67;81.82;;;;;;;2.73;100.00;97611.73;1646238;85;25969;-39
2023/01/17 03:44:39;;;;;;;56.50;51.37;;;;;;;2.71;100.00;97616.63;1671617;85;25498;-39
2023/01/17 03:47:05;;;;;;;20.50;11.55;;;;;;;2.73;100.00;97610.41;1671626;85;27423;-39
2023/01/17 03:49:32;;;;;;;43.30;39.98;;;;;;;2.70;100.00;97613.15;1671533;85;25650;-39
2023/01/17 03:51:58;;;;;;;87.30;80.25;;;;;;;2.71;100.00;97612.62;1671652;84;25584;-39
2023/01/17 03:54:24;;;;;;;84.35;77.67;;;;;;;2.69;100.00;97608.93;1671599;85;26196;-40
2023/01/17 03:56:51;;;;;;;88.80;82.00;;;;;;;2.70;100.00;97610.48;1671645;85;25633;-39
2023/01/17 03:59:17;;;;;;;88.17;81.22;;;;;;;2.69;100.00;97607.59;1671609;85;27498;-40
2023/01/17 04:01:43;;;;;;;87.50;80.40;;;;;;;2.69;100.00;97608.93;1646162;85;25760;-40
2023/01/17 04:04:09;;;;;;;88.80;81.67;;;;;;;2.68;100.00;97603.91;1624267;85;25807;-39
2023/01/17 04:06:35;;;;;;;89.62;82.53;;;;;;;2.67;100.00;97605.78;1671548;85;25613;-40
2023/01/17 04:09:02;;;;;;;87.22;80.47;;;;;;;2.67;100.00;97610.34;1671670;85;25643;-39
2023/01/17 04:11:29;;;;;;;86.70;79.85;;;;;;;2.68;100.00;97613.26;1646174;85;27040;-40
2023/01/17 04:13:55;;;;;;;86.55;79.92;;;;;;;2.66;100.00;97600.80;1624159;85;25554;-40
2023/01/17 04:16:27;;;;;;;86.37;79.60;;;;;;;2.66;100.00;97605.57;1646304;85;25447;-39
2023/01/17 04:18:55;;;;;;;88.30;81.40;;;;;;;2.66;100.00;97606.13;1671611;85;26001;-40
2023/01/17 04:21:21;;;;;;;87.80;80.90;;;;;;;2.65;100.00;97599.98;1671708;85;25421;-42
2023/01/17 04:23:47;;;;;;;88.82;81.57;;;;;;;2.65;100.00;97604.55;1646208;85;27710;-41
2023/01/17 04:26:14;;;;;;;87.97;81.20;;;;;;;2.64;100.00;97601.64;1646086;85;25441;-40
2023/01/17 04:28:40;;;;;;;86.80;80.22;;;;;;;2.63;100.00;97610.20;1646394;85;25617;-40
2023/01/17 04:31:10;;;;;;;86.70;80.00;;;;;;;2.63;100.00;97610.20;1646351;85;25700;-40
2023/01/17 04:33:36;;;;;;;89.00;82.02;;;;;;;2.62;100.00;97615.30;1700406;84;25217;-40
2023/01/17 04:36:05;;;;;;;86.85;80.25;;;;;;;2.61;100.00;97612.42;1702845;84;27293;-40
2023/01/17 04:38:31;;;;;;;88.22;81.57;;;;;;;2.62;100.00;97608.63;1702696;82;25630;-40
2023/01/17 04:40:58;;;;;;;86.47;79.90;;;;;;;2.61;100.00;97617.20;1702803;84;25406;-40
2023/01/17 04:43:24;;;;;;;86.67;80.22;;;;;;;2.61;100.00;97618.53;1702746;84;25670;-40
2023/01/17 04:45:58;;;;;;;86.47;79.87;;;;;;;2.61;100.00;97623.87;1702837;84;25456;-40
2023/01/17 04:48:25;;;;;;;85.20;78.95;;;;;;;2.61;100.00;97615.09;1702805;84;26867;-41
2023/01/17 04:51:01;;;;;;;86.02;79.42;;;;;;;2.59;100.00;97622.08;1676259;84;25675;-39
2023/01/17 04:53:28;;;;;;;86.08;79.42;;;;;;;2.58;100.00;97620.50;1697610;84;25485;-39
2023/01/17 04:55:54;;;;;;;86.12;79.45;;;;;;;2.59;100.00;97623.98;1697506;84;25693;-40
2023/01/17 04:58:21;;;;;;;85.47;78.95;;;;;;;2.57;100.00;97627.49;1697568;84;25632;-40
2023/01/17 05:00:49;;;;;;;85.15;78.42;;;;;;;2.58;100.00;97631.18;1697559;84;27507;-39
2023/01/17 05:03:21;;;;;;;88.60;81.70;;;;;;;2.58;100.00;97629.84;1697534;84;25664;-39
2023/01/17 05:05:48;;;;;;;83.60;77.27;;;;;;;2.57;100.00;97641.64;1671036;84;25492;-40
2023/01/17 05:08:14;;;;;;;86.30;79.62;;;;;;;2.58;100.00;97634.41;1697492;84;25709;-40
2023/01/17 05:10:41;;;;;;;86.12;79.30;;;;;;;2.57;100.00;97642.17;1671320;84;25647;-39
2023/01/17 05:13:09;;;;;;;86.15;79.45;;;;;;;2.56;100.00;97640.63;1671376;84;27396;-40
2023/01/17 05:15:36;;;;;;;84.40;77.97;;;;;;;2.55;100.00;97639.05;1697472;83;25427;-40
2023/01/17 05:18:07;;;;;;;85.25;78.85;;;;;;;2.54;100.00;97645.50;1697524;84;25568;-39
2023/01/17 05:20:31;;;;;;;60.75;56.10;;;;;;;2.53;100.00;97649.27;1697199;84;25797;-40
2023/01/17 05:22:57;;;;;;;84.52;78.00;;;;;;;2.50;100.00;97644.00;1671373;84;25496;-39
2023/01/17 05:25:28;;;;;;;84.42;77.95;;;;;;;2.50;100.00;97647.23;1671290;84;27349;-39
2023/01/17 05:27:55;;;;;;;84.85;78.45;;;;;;;2.47;100.00;97650.00;1697495;84;25618;-40
2023/01/17 05:30:22;;;;;;;83.97;77.72;;;;;;;2.46;100.00;97653.76;1697548;84;25713;-39
2023/01/17 05:32:51;;;;;;;85.50;78.87;;;;;;;2.46;100.00;97651.09;1690804;84;27909;-40
2023/01/17 05:35:20;;;;;;;85.62;78.90;;;;;;;2.45;100.00;97652.19;1688747;85;25665;-40
2023/01/17 05:37:49;;;;;;;85.32;78.72;;;;;;;2.42;100.00;97642.17;1688824;85;27868;-40
2023/01/17 05:40:23;;;;;;;88.33;81.15;;;;;;;2.41;100.00;97644.04;1688595;85;25482;-40
2023/01/17 05:42:53;;;;;;;85.65;79.05;;;;;;;2.40;100.00;97641.69;1688333;85;25612;-39
2023/01/17 05:45:22;;;;;;;85.60;79.03;;;;;;;2.39;100.00;97640.91;1693630;84;25619;-40
2023/01/17 05:47:52;;;;;;;84.00;77.62;;;;;;;2.37;100.00;97646.34;1693834;84;25418;-39
2023/01/17 05:50:32;;;;;;;83.97;77.90;;;;;;;2.35;100.00;97659.20;1693699;84;27315;-39
2023/01/17 05:53:06;;;;;;;84.15;77.85;;;;;;;2.33;100.00;97655.52;1693782;84;25551;-39
2023/01/17 05:55:33;;;;;;;86.53;79.60;;;;;;;2.33;100.00;97654.74;1692793;84;25648;-39
2023/01/17 05:58:00;;;;;;;85.57;78.95;;;;;;;2.30;100.00;97653.51;1693654;84;25605;-39
2023/01/17 06:00:26;;;;;;;85.38;78.72;;;;;;;2.28;100.00;97655.69;1693795;84;25733;-38
2023/01/17 06:02:56;;;;;;;86.50;79.85;;;;;;;2.26;100.00;97649.89;1669624;84;27508;-39
2023/01/17 06:05:24;;;;;;;;;;;;;;;2.23;100.00;97656.66;1696106;84;25608;-39
2023/01/17 06:07:51;;;;;;;84.32;77.90;;;;;;;2.21;100.00;97670.88;1693658;83;25435;-40
2023/01/17 06:10:22;;;;;;;85.00;78.52;;;;;;;2.18;100.00;97664.03;1693629;84;26304;-39
2023/01/17 06:12:49;;;;;;;85.22;78.45;;;;;;;2.14;100.00;97669.22;1693682;84;25648;-39
2023/01/17 06:15:18;;;;;;;87.62;80.72;;;;;;;2.14;100.00;97671.11;1693636;84;28165;-39
2023/01/17 06:17:44;;;;;;;85.42;78.78;;;;;;;2.13;100.00;97676.20;1693745;84;25697;-39
2023/01/17 06:20:12;;;;;;;31.33;28.20;;;;;;;2.12;100.00;97675.98;1669548;84;25441;-38
2023/01/17 06:22:40;;;;;;;13.15;8.10;;;;;;;2.09;100.00;97680.05;1669574;84;25603;-40
2023/01/17 06:25:08;;;;;;;17.62;9.90;;;;;;;2.09;100.00;97681.95;1693676;84;25647;-40
2023/01/17 06:27:35;;;;;;;17.07;9.35;;;;;;;2.08;100.00;97691.84;1669855;84;27316;-40
2023/01/17 06:30:02;;;;;;;20.23;9.60;;;;;;;2.07;100.00;97683.59;1669522;84;25584;-40
2023/01/17 06:32:28;;;;;;;19.87;10.58;;;;;;;2.07;100.00;97685.48;1695552;82;25579;-39
2023/01/17 06:34:55;;;;;;;16.67;8.35;;;;;;;2.07;100.00;97690.26;1702888;84;25678;-39
2023/01/17 06:37:21;;;;;;;18.77;9.70;;;;;;;2.07;100.00;97691.59;1703030;84;25578;-40
2023/01/17 06:39:48;;;;;;;20.80;9.38;;;;;;;2.05;100.00;97681.80;1703064;84;27370;-39
2023/01/17 06:42:14;;;;;;;22.48;11.18;;;;;;;2.05;100.00;97685.23;1702938;84;25378;-39
2023/01/17 06:44:40;;;;;;;17.95;9.90;;;;;;;2.05;100.00;97679.91;1702928;84;25513;-39
2023/01/17 06:47:06;;;;;;;16.48;8.98;;;;;;;2.03;100.00;97671.45;1702780;84;25660;-40
2023/01/17 06:49:33;;;;;;;18.75;10.78;;;;;;;2.02;100.00;97683.20;1653804;84;25464;-40
2023/01/17 06:52:00;;;;;;;23.98;10.55;;;;;;;1.98;100.00;97681.50;1702885;84;27402;-39
2023/01/17 06:54:32;;;;;;;19.80;9.43;;;;;;;1.99;100.00;97688.38;1702809;84;25633;-40
2023/01/17 06:56:58;;;;;;;20.27;10.00;;;;;;;1.95;100.00;97678.13;1702889;84;25409;-40
2023/01/17 06:59:25;;;;;;;22.45;10.70;;;;;;;1.91;100.00;97676.64;1702810;84;25568;-39
2023/01/17 07:01:51;;;;;;;13.80;8.13;;;;;;;1.90;100.00;97679.62;1702926;84;25541;-38
2023/01/17 07:04:24;;;;;;;24.50;11.05;;;;;;;1.86;100.00;97685.58;1702912;84;28155;-38
2023/01/17 07:06:51;;;;;;;19.02;9.98;;;;;;;1.83;100.00;97679.53;1702797;84;25710;-39
2023/01/17 07:09:17;;;;;;;20.00;15.63;;;;;;;1.82;100.00;97685.18;1702978;84;25570;-40
2023/01/17 07:11:44;;;;;;;71.20;65.15;;;;;;;1.80;100.00;97697.48;1702910;84;26093;-40
2023/01/17 07:14:14;;;;;;;80.97;74.53;;;;;;;1.79;100.00;97700.49;1702929;84;25642;-40
2023/01/17 07:16:44;;;;;;;61.23;56.20;;;;;;;1.79;100.00;97711.16;1703143;84;27379;-41
2023/01/17 07:19:09;;;;;;;49.80;45.60;;;;;;;1.77;100.00;97710.66;1702400;84;25567;-39
2023/01/17 07:21:36;;;;;;;88.15;81.35;;;;;;;1.77;100.00;97709.33;1702876;84;25410;-39
2023/01/17 07:24:02;;;;;;;87.67;81.08;;;;;;;1.77;100.00;97708.80;1702861;84;26138;-40
2023/01/17 07:26:29;;;;;;;86.80;80.22;;;;;;;1.77;100.00;97707.47;1676582;84;25442;-38
2023/01/17 07:28:55;;;;;;;90.67;83.37;;;;;;;1.79;100.00;97709.83;1702828;84;27360;-40
2023/01/17 07:31:21;;;;;;;86.82;79.97;;;;;;;1.78;100.00;97710.35;1702784;84;25615;-41
2023/01/17 07:33:47;;;;;;;86.40;79.75;;;;;;;1.76;100.00;97704.55;1700933;84;25480;-41
2023/01/17 07:36:13;;;;;;;87.80;81.03;;;;;;;1.79;100.00;97707.16;1699801;84;33814;-41
2023/01/17 07:38:43;;;;;;;87.30;80.45;;;;;;;1.80;100.00;97714.81;1699890;84;25422;-40
2023/01/17 07:41:09;;;;;;;90.05;82.90;;;;;;;1.84;100.00;97713.11;1699806;84;27435;-41
2023/01/17 07:43:35;;;;;;;87.57;80.38;;;;;;;1.84;100.00;97707.00;1699838;84;25561;-40
2023/01/17 07:46:06;;;;;;;85.35;78.65;;;;;;;1.89;100.00;97706.03;1699828;84;25636;-42
2023/01/17 07:48:34;;;;;;;85.75;78.95;;;;;;;1.92;100.00;97695.52;1699864;84;25621;-41
2023/01/17 07:51:00;;;;;;;89.52;82.20;;;;;;;1.93;100.00;97694.44;1699898;84;25649;-41
2023/01/17 07:53:30;;;;;;;87.42;80.32;;;;;;;1.99;100.00;97688.38;1699922;84;27293;-41
2023/01/17 07:56:03;;;;;;;87.82;80.90;;;;;;;2.03;100.00;97688.00;1699878;84;25636;-40
2023/01/17 07:58:32;;;;;;;89.03;82.02;;;;;;;2.10;100.00;97691.52;1671697;84;25771;-41
2023/01/17 08:01:08;;;;;;;89.32;82.47;;;;;;;2.17;100.00;97700.59;1699783;84;26325;-40
2023/01/17 08:03:38;;;;;;;88.90;81.65;;;;;;;2.28;100.00;97706.37;1699896;84;25454;-41
2023/01/17 08:06:04;;;;;;;90.32;83.10;;;;;;;2.47;100.00;97711.91;1699502;84;29530;-39
2023/01/17 08:08:30;;;;;;;92.40;85.10;;;;;;;2.67;100.00;97712.55;1699711;84;25583;-40
2023/01/17 08:10:57;;;;;;;91.17;83.50;;;;;;;2.93;100.00;97725.81;1699780;84;25494;-40
2023/01/17 08:13:24;;;;;;;86.53;80.00;;;;;;;3.24;100.00;97730.06;1699827;84;26325;-40
2023/01/17 08:15:53;;;;;;;89.42;82.20;;;;;;;3.46;100.00;97726.88;1699901;84;25552;-40
2023/01/17 08:18:20;;;;;;;87.27;80.28;;;;;;;3.70;100.00;97723.56;1700003;84;27316;-41
2023/01/17 08:20:46;;;;;;;89.72;82.88;;;;;;;4.01;100.00;97729.06;1699811;84;25729;-40
2023/01/17 08:23:12;;;;;;;87.15;79.75;;;;;;;4.27;100.00;97742.20;1699826;84;25609;-38
2023/01/17 08:25:39;;;;;;;89.05;81.72;;;;;;;4.52;100.00;97743.06;1699834;84;25696;-39
2023/01/17 08:28:06;;;;;;;87.08;80.30;;;;;;;4.80;100.00;97744.58;1699835;84;25559;-39
2023/01/17 08:30:35;;;;;;;87.75;80.62;;;;;;;5.22;100.00;97731.53;1699887;84;27343;-39
2023/01/17 08:33:02;;;;;;;86.22;79.50;;;;;;;5.45;100.00;97746.61;1699700;83;25722;-39
2023/01/17 08:35:29;;;;;;;84.67;78.37;;;;;;;5.60;100.00;97738.41;1699920;84;25358;-39
2023/01/17 08:37:57;;;;;;;84.05;77.60;;;;;;;5.73;100.00;97729.80;1699833;84;25722;-39
2023/01/17 08:40:25;;;;;;;86.15;79.75;;;;;;;5.84;100.00;97728.75;1699845;84;25479;-40
2023/01/17 08:42:58;;;;;;;86.17;79.42;;;;;;;5.87;98.54;97734.22;1699400;84;27341;-39
2023/01/17 08:45:26;;;;;;;84.32;77.87;;;;;;;5.79;96.06;97739.18;1699030;84;26122;-39
2023/01/17 08:47:53;;;;;;;84.85;78.52;;;;;;;5.64;95.10;97736.63;1671311;84;25590;-39
2023/01/17 08:50:20;;;;;;;86.42;80.00;;;;;;;5.50;95.50;97727.61;1699325;84;25695;-39
2023/01/17 08:52:52;;;;;;;86.85;80.22;;;;;;;5.43;96.08;97723.35;1699395;84;25616;-38
2023/01/17 08:55:18;;;;;;;87.30;80.70;;;;;;;5.27;95.54;97721.16;1699442;84;27351;-39
2023/01/17 08:57:45;;;;;;;85.45;79.12;;;;;;;5.17;95.84;97717.80;1699381;84;25694;-39
2023/01/17 09:00:14;;;;;;;85.57;79.03;;;;;;;5.08;96.13;97713.69;1699889;84;25648;-39
2023/01/17 09:02:40;;;;;;;85.50;79.22;;;;;;;4.95;95.20;97709.64;1695856;84;25764;-39
2023/01/17 09:05:08;;;;;;;85.70;79.40;;;;;;;4.84;95.85;97709.31;1699952;84;25573;-39
2023/01/17 09:07:34;;;;;;;85.28;78.85;;;;;;;4.72;94.88;97707.97;1700069;83;27456;-39
2023/01/17 09:10:02;;;;;;;19.73;17.67;;;;;;;4.62;95.67;97717.77;1699992;84;27249;-40
2023/01/17 09:12:35;;;;;;;16.70;8.58;;;;;;;4.50;95.02;97715.84;1700051;84;25608;-40
2023/01/17 09:15:05;;;;;;;12.65;8.00;;;;;;;4.40;95.31;97714.37;1699940;84;25680;-41
2023/01/17 09:17:32;;;;;;;15.05;8.55;;;;;;;4.33;95.98;97713.36;1700143;84;25627;-40
2023/01/17 09:19:59;;;;;;;16.02;9.20;;;;;;;4.22;95.84;97725.01;1699958;84;27432;-38
2023/01/17 09:22:26;;;;;;;15.53;8.40;;;;;;;4.15;96.44;97726.11;1699884;84;27247;-40
2023/01/17 09:24:53;;;;;;;16.80;8.20;;;;;;;4.10;96.88;97724.41;1672043;84;25482;-40
2023/01/17 09:27:20;;;;;;;16.50;8.28;;;;;;;4.04;96.63;97727.08;1700279;84;25793;-38
2023/01/17 09:29:46;;;;;;;14.47;9.03;;;;;;;3.98;97.02;97730.48;1700346;84;25630;-40
2023/01/17 09:32:16;;;;;;;14.93;8.28;;;;;;;3.93;96.73;97725.34;1699954;84;27333;-38
2023/01/17 09:34:43;;;;;;;17.83;10.67;;;;;;;3.88;96.93;97735.70;1698961;84;25836;-38
2023/01/17 09:37:09;;;;;;;15.63;8.93;;;;;;;3.82;97.01;97734.32;1679090;84;25658;-40
2023/01/17 09:39:35;;;;;;;17.37;9.13;;;;;;;3.79;97.37;97736.87;1703519;84;26215;-40
2023/01/17 09:42:07;;;;;;;16.23;8.70;;;;;;;3.75;97.79;97736.73;1703590;84;25603;-39
2023/01/17 09:44:47;;;;;;;17.48;8.80;;;;;;;3.76;98.35;97734.84;1703447;84;27343;-40
2023/01/17 09:47:44;;;;;;;16.55;9.30;;;;;;;3.76;98.38;97742.86;1701269;84;25430;-39
2023/01/17 09:50:33;;;;;;;15.03;9.25;;;;;;;3.73;98.19;97747.76;1703146;84;25471;-39
2023/01/17 09:53:06;;;;;;;19.52;9.83;;;;;;;3.69;98.38;97750.83;1703586;84;27775;-39
2023/01/17 09:55:59;;;;;;;65.45;60.05;;;;;;;3.67;98.29;97752.28;1703455;84;25622;-39
2023/01/17 09:58:37;;;;;;;90.95;83.80;;;;;;;3.66;98.54;97752.84;1630888;87;29525;-39
2023/01/17 10:01:23;;;;;;;86.80;80.20;;;;;;;3.65;98.47;97747.82;1630624;88;25606;-39
2023/01/17 10:04:17;;;;;;;77.20;71.17;;;;;;;3.62;98.39;97754.58;1630931;88;25558;-39
2023/01/17 10:07:10;;;;;;;16.80;9.60;;;;;;;3.59;98.47;97755.23;1630759;88;26473;-40
2023/01/17 10:10:00;;;;;;;17.35;9.48;;;;;;;3.59;98.80;97752.55;1629665;88;25608;-38
2023/01/17 10:12:40;;;;;;;17.87;9.38;;;;;;;3.62;99.31;97755.14;1630411;88;27407;-38
2023/01/17 10:15:34;;;;;;;19.48;9.90;;;;;;;3.63;99.21;97754.05;1577290;90;25551;-39
2023/01/17 10:18:06;;;;;;;18.25;9.15;;;;;;;3.64;98.99;97768.96;1578181;90;25752;-39
2023/01/17 10:20:48;;;;;;;19.92;12.90;;;;;;;3.62;99.02;97759.16;1530288;93;25744;-40
2023/01/17 10:23:49;;;;;;;19.73;11.03;;;;;;;3.61;98.42;97754.91;1530585;93;25301;-40
2023/01/17 10:26:23;;;;;;;17.17;10.25;;;;;;;3.60;98.74;97759.48;1517935;94;27396;-40
2023/01/17 10:28:53;;;;;;;75.00;69.17;;;;;;;3.60;98.92;97752.80;1517402;94;25770;-40
2023/01/17 10:31:43;;;;;;;20.32;9.73;;;;;;;3.64;99.55;97753.70;1517981;94;25607;-39
2023/01/17 10:34:18;;;;;;;86.85;80.07;;;;;;;3.68;99.11;97763.98;1481293;96;26057;-41
2023/01/17 10:36:49;;;;;;;76.95;70.85;;;;;;;3.66;99.12;97760.06;1477213;97;26190;-42
2023/01/17 10:39:24;;;;;;;19.52;10.65;;;;;;;3.71;99.04;97771.36;1478768;97;27380;-40
2023/01/17 10:42:02;;;;;;;17.80;9.78;;;;;;;3.72;99.26;97768.91;1479050;97;25539;-40
2023/01/17 10:44:40;;;;;;;18.60;11.38;;;;;;;3.76;99.11;97769.59;1479269;97;25599;-40
2023/01/17 10:47:20;;;;;;;15.95;10.15;;;;;;;3.77;98.96;97767.16;1478390;97;25668;-39
2023/01/17 10:49:53;;;;;;;72.65;67.10;;;;;;;3.75;98.20;97766.15;1479302;97;25557;-38
2023/01/17 10:52:42;;;;;;;86.47;79.92;;;;;;;3.76;98.46;97768.27;1518649;91;26891;-39
2023/01/17 10:55:33;;;;;;;28.30;21.20;;;;;;;3.76;98.54;97770.38;1609684;89;27280;-39
2023/01/17 10:58:00;;;;;;;17.52;9.70;;;;;;;3.79;97.64;97772.96;1635054;86;25712;-40
2023/01/17 11:00:58;;;;;;;22.17;11.38;;;;;;;3.79;97.91;97768.39;1641483;86;25717;-39
2023/01/17 11:03:26;;;;;;;84.60;78.05;;;;;;;3.79;98.04;97774.30;1732518;82;25459;-40
2023/01/17 11:06:21;;;;;;;23.20;17.15;;;;;;;3.77;97.98;97773.28;1732434;82;27956;-39
2023/01/17 11:08:55;;;;;;;89.00;82.22;;;;;;;3.78;97.49;97779.41;1732366;82;25663;-39
2023/01/17 11:11:32;;;;;;;86.85;80.15;;;;;;;3.78;97.87;97777.54;1732507;82;25402;-39
2023/01/17 11:14:05;;;;;;;33.10;29.67;;;;;;;3.79;97.69;97773.73;1732439;82;25640;-39
2023/01/17 11:16:36;;;;;;;14.13;9.03;;;;;;;3.80;97.70;97772.64;1730064;82;25421;-40
2023/01/17 11:19:22;;;;;;;18.90;10.78;;;;;;;3.84;97.45;97780.80;1732470;82;27982;-40
2023/01/17 11:22:00;;;;;;;20.32;10.53;;;;;;;3.87;97.92;97782.26;1728693;82;25974;-41
2023/01/17 11:24:36;;;;;;;18.85;10.03;;;;;;;3.89;97.09;97787.28;1732186;82;25571;-39
2023/01/17 11:27:10;;;;;;;16.00;9.03;;;;;;;3.90;96.79;97782.17;1732450;82;26192;-39
2023/01/17 11:29:40;;;;;;;15.70;9.15;;;;;;;3.92;97.08;97787.41;1729361;82;25497;-40
2023/01/17 11:32:28;;;;;;;;;;;;;;;3.98;97.59;97788.55;1734964;82;27420;-40
2023/01/17 11:35:14;;;;;;;18.98;9.93;;;;;;;4.01;97.14;97781.22;1695519;83;27158;-39
2023/01/17 11:38:03;;;;;;;15.75;8.63;;;;;;;4.00;95.99;97791.68;1665102;86;25603;-39
2023/01/17 11:40:45;;;;;;;20.60;10.28;;;;;;;4.01;96.56;97788.69;1654020;86;25640;-40
2023/01/17 11:43:23;;;;;;;17.27;9.75;;;;;;;4.04;96.48;97788.60;1663952;86;25630;-38
2023/01/17 11:46:07;;;;;;;16.35;8.58;;;;;;;4.06;96.14;97781.02;1664645;86;27481;-39
2023/01/17 11:48:38;;;;;;;17.45;8.93;;;;;;;4.07;96.13;97787.92;1664860;86;25532;-39
2023/01/17 11:51:28;;;;;;;18.02;10.00;;;;;;;4.08;96.04;97794.28;1665275;86;25689;-38
2023/01/17 11:54:17;;;;;;;79.45;73.50;;;;;;;4.08;95.28;97792.95;1665092;86;28015;-40
2023/01/17 11:56:45;;;;;;;86.70;80.10;;;;;;;4.03;95.07;97791.03;1665183;86;25683;-40
2023/01/17 11:59:36;;;;;;;85.97;79.03;;;;;;;4.03;95.23;97791.81;1665135;86;27412;-38
2023/01/17 12:02:30;;;;;;;86.57;79.67;;;;;;;4.00;94.87;97796.50;1665404;86;25517;-39
2023/01/17 12:05:25;;;;;;;88.30;81.30;;;;;;;3.99;95.20;97805.62;1665940;86;25685;-39
2023/01/17 12:08:34;;;;;;;84.55;78.10;;;;;;;3.98;94.01;97804.61;1665085;86;25632;-39
2023/01/17 12:11:25;;;;;;;21.77;14.38;;;;;;;3.96;94.61;97798.80;1666873;85;25675;-38
2023/01/17 12:14:27;;;;;;;21.80;9.78;;;;;;;3.98;95.27;97799.26;1680316;82;27205;-39
2023/01/17 12:17:23;;;;;;;21.52;12.20;;;;;;;3.98;94.92;97809.39;1731921;82;25387;-39
2023/01/17 12:19:59;;;;;;;18.42;10.20;;;;;;;3.99;95.09;97806.19;1731930;82;25425;-39
2023/01/17 12:22:51;;;;;;;18.82;10.95;;;;;;;4.03;95.24;97806.52;1703265;82;25495;-39
2023/01/17 12:25:54;;;;;;;19.32;9.78;;;;;;;4.02;94.69;97796.95;1727252;82;25568;-38
2023/01/17 12:28:43;;;;;;;24.43;10.15;;;;;;;4.01;94.68;97798.61;1732483;82;27359;-39
2023/01/17 12:31:27;;;;;;;16.50;8.95;;;;;;;3.98;94.22;97792.00;1732486;82;26420;-38
2023/01/17 12:34:17;;;;;;;17.25;9.40;;;;;;;4.00;94.52;97794.36;1732002;82;25469;-39
2023/01/17 12:37:01;;;;;;;19.32;8.88;;;;;;;4.00;94.58;97784.99;1731603;82;26133;-40
2023/01/17 12:39:42;;;;;;;19.65;9.98;;;;;;;4.00;94.67;97783.13;1703131;82;25559;-38
2023/01/17 12:42:17;;;;;;;14.38;8.50;;;;;;;4.01;94.56;97789.25;1733152;82;28147;-38
2023/01/17 12:44:52;;;;;;;25.12;19.20;;;;;;;3.99;94.59;97781.55;1732746;82;25578;-37
2023/01/17 12:47:21;;;;;;;20.05;11.05;;;;;;;4.04;94.98;97789.38;1730643;82;25465;-37
2023/01/17 12:49:56;;;;;;;20.50;10.15;;;;;;;4.03;94.46;97779.00;1732459;82;25668;-38
2023/01/17 12:52:46;;;;;;;26.20;11.95;;;;;;;4.02;93.20;97786.78;1683806;82;25462;-38
2023/01/17 12:55:21;;;;;;;20.62;9.58;;;;;;;4.01;93.97;97774.53;1697456;83;28404;-39
2023/01/17 12:57:53;;;;;;;20.52;10.88;;;;;;;4.04;93.99;97779.23;1697315;84;25809;-38
2023/01/17 13:00:24;;;;;;;23.42;10.98;;;;;;;4.07;94.43;97778.03;1697252;84;25478;-38
2023/01/17 13:03:33;;;;;;;22.27;10.75;;;;;;;4.13;94.58;97787.97;1697324;84;25850;-39
2023/01/17 13:06:05;;;;;;;17.73;9.93;;;;;;;4.17;94.58;97790.23;1670765;85;25663;-40
2023/01/17 13:08:40;;;;;;;19.98;10.20;;;;;;;4.21;93.87;97794.38;1671266;85;27441;-38
2023/01/17 13:11:33;;;;;;;19.27;8.85;;;;;;;4.21;93.45;97795.70;1671056;85;25532;-39
2023/01/17 13:14:05;;;;;;;18.20;8.75;;;;;;;4.24;94.26;97804.39;1671181;85;25644;-37